sensor_id;sensor_type;location;lat;lon;timestamp;P1;durP1;ratioP1;P2;durP2;ratioP2
54555;SDS011;57291;37.520;15.106;2024-03-07T00:00:44;12.68;;;5.55;;
54555;SDS011;57291;37.520;15.106;2024-03-07T00:03:12;14.05;;;5.25;;
54555;SDS011;57291;37.520;15.106;2024-03-07T00:05:41;10.85;;;5.03;;
54555;SDS011;57291;37.520;15.106;2024-03-07T00:08:09;12.77;;;5.18;;
54555;SDS011;57291;37.520;15.106;2024-03-07T00:10:38;13.20;;;5.18;;
54555;SDS011;57291;37.520;15.106;2024-03-07T00:13:05;12.35;;;5.20;;
54555;SDS011;57291;37.520;15.106;2024-03-07T00:15:32;12.15;;;5.05;;
54555;SDS011;57291;37.520;15.106;2024-03-07T00:18:00;12.27;;;5.15;;
54555;SDS011;57291;37.520;15.106;2024-03-07T00:20:28;13.98;;;5.15;;
54555;SDS011;57291;37.520;15.106;2024-03-07T00:22:56;11.32;;;5.40;;
54555;SDS011;57291;37.520;15.106;2024-03-07T00:25:24;14.13;;;5.43;;
54555;SDS011;57291;37.520;15.106;2024-03-07T00:27:51;13.15;;;5.30;;
54555;SDS011;57291;37.520;15.106;2024-03-07T00:30:20;11.35;;;5.72;;
54555;SDS011;57291;37.520;15.106;2024-03-07T00:32:48;10.55;;;5.60;;
54555;SDS011;57291;37.520;15.106;2024-03-07T00:35:15;6.95;;;4.25;;
54555;SDS011;57291;37.520;15.106;2024-03-07T00:37:43;13.32;;;5.20;;
54555;SDS011;57291;37.520;15.106;2024-03-07T00:40:10;11.52;;;4.40;;
54555;SDS011;57291;37.520;15.106;2024-03-07T00:42:38;8.48;;;3.95;;
54555;SDS011;57291;37.520;15.106;2024-03-07T00:45:06;7.57;;;3.70;;
54555;SDS011;57291;37.520;15.106;2024-03-07T00:47:33;8.88;;;3.38;;
54555;SDS011;57291;37.520;15.106;2024-03-07T00:50:01;8.95;;;3.17;;
54555;SDS011;57291;37.520;15.106;2024-03-07T00:52:28;6.30;;;2.50;;
54555;SDS011;57291;37.520;15.106;2024-03-07T00:54:56;4.00;;;1.85;;
54555;SDS011;57291;37.520;15.106;2024-03-07T00:57:23;4.22;;;1.65;;
54555;SDS011;57291;37.520;15.106;2024-03-07T00:59:50;4.63;;;1.85;;
54555;SDS011;57291;37.520;15.106;2024-03-07T01:02:18;6.45;;;1.80;;
54555;SDS011;57291;37.520;15.106;2024-03-07T01:04:46;3.88;;;1.70;;
54555;SDS011;57291;37.520;15.106;2024-03-07T01:07:14;4.75;;;1.98;;
54555;SDS011;57291;37.520;15.106;2024-03-07T01:09:41;5.18;;;2.35;;
54555;SDS011;57291;37.520;15.106;2024-03-07T01:12:08;4.35;;;2.10;;
54555;SDS011;57291;37.520;15.106;2024-03-07T01:14:37;5.75;;;2.67;;
54555;SDS011;57291;37.520;15.106;2024-03-07T01:17:04;4.40;;;2.33;;
54555;SDS011;57291;37.520;15.106;2024-03-07T01:19:35;5.55;;;2.53;;
54555;SDS011;57291;37.520;15.106;2024-03-07T01:22:02;5.80;;;2.33;;
54555;SDS011;57291;37.520;15.106;2024-03-07T01:24:30;3.38;;;2.00;;
54555;SDS011;57291;37.520;15.106;2024-03-07T01:26:57;5.20;;;2.55;;
54555;SDS011;57291;37.520;15.106;2024-03-07T01:29:26;4.68;;;2.17;;
54555;SDS011;57291;37.520;15.106;2024-03-07T01:31:54;3.78;;;2.22;;
54555;SDS011;57291;37.520;15.106;2024-03-07T01:34:22;3.35;;;1.77;;
54555;SDS011;57291;37.520;15.106;2024-03-07T01:36:49;4.30;;;1.90;;
54555;SDS011;57291;37.520;15.106;2024-03-07T01:39:16;4.85;;;1.75;;
54555;SDS011;57291;37.520;15.106;2024-03-07T01:41:43;3.97;;;1.80;;
54555;SDS011;57291;37.520;15.106;2024-03-07T01:44:11;5.80;;;1.90;;
54555;SDS011;57291;37.520;15.106;2024-03-07T01:46:39;3.78;;;1.60;;
54555;SDS011;57291;37.520;15.106;2024-03-07T01:49:08;4.57;;;1.80;;
54555;SDS011;57291;37.520;15.106;2024-03-07T01:51:36;3.95;;;1.52;;
54555;SDS011;57291;37.520;15.106;2024-03-07T01:54:06;2.80;;;1.45;;
54555;SDS011;57291;37.520;15.106;2024-03-07T01:56:36;4.53;;;1.70;;
54555;SDS011;57291;37.520;15.106;2024-03-07T01:59:05;3.95;;;1.70;;
54555;SDS011;57291;37.520;15.106;2024-03-07T02:01:34;6.43;;;2.08;;
54555;SDS011;57291;37.520;15.106;2024-03-07T02:04:03;4.72;;;2.03;;
54555;SDS011;57291;37.520;15.106;2024-03-07T02:06:31;4.53;;;2.42;;
54555;SDS011;57291;37.520;15.106;2024-03-07T02:09:00;7.20;;;3.10;;
54555;SDS011;57291;37.520;15.106;2024-03-07T02:11:29;7.72;;;4.00;;
54555;SDS011;57291;37.520;15.106;2024-03-07T02:13:57;10.20;;;5.18;;
54555;SDS011;57291;37.520;15.106;2024-03-07T02:16:24;8.98;;;5.30;;
54555;SDS011;57291;37.520;15.106;2024-03-07T02:18:52;10.07;;;4.63;;
54555;SDS011;57291;37.520;15.106;2024-03-07T02:21:21;10.32;;;4.97;;
54555;SDS011;57291;37.520;15.106;2024-03-07T02:23:49;8.10;;;4.47;;
54555;SDS011;57291;37.520;15.106;2024-03-07T02:26:17;9.00;;;4.28;;
54555;SDS011;57291;37.520;15.106;2024-03-07T02:28:45;8.02;;;4.03;;
54555;SDS011;57291;37.520;15.106;2024-03-07T02:31:12;7.60;;;3.60;;
54555;SDS011;57291;37.520;15.106;2024-03-07T02:33:40;8.88;;;3.50;;
54555;SDS011;57291;37.520;15.106;2024-03-07T02:36:08;5.75;;;3.22;;
54555;SDS011;57291;37.520;15.106;2024-03-07T02:38:35;8.30;;;3.67;;
54555;SDS011;57291;37.520;15.106;2024-03-07T02:41:03;8.25;;;3.80;;
54555;SDS011;57291;37.520;15.106;2024-03-07T02:43:30;6.88;;;3.33;;
54555;SDS011;57291;37.520;15.106;2024-03-07T02:45:57;7.90;;;3.80;;
54555;SDS011;57291;37.520;15.106;2024-03-07T02:48:25;7.18;;;3.63;;
54555;SDS011;57291;37.520;15.106;2024-03-07T02:50:52;5.93;;;2.85;;
54555;SDS011;57291;37.520;15.106;2024-03-07T02:53:19;8.13;;;3.50;;
54555;SDS011;57291;37.520;15.106;2024-03-07T02:55:47;5.50;;;3.10;;
54555;SDS011;57291;37.520;15.106;2024-03-07T02:58:14;8.07;;;3.05;;
54555;SDS011;57291;37.520;15.106;2024-03-07T03:00:43;6.53;;;3.10;;
54555;SDS011;57291;37.520;15.106;2024-03-07T03:03:10;7.57;;;2.75;;
54555;SDS011;57291;37.520;15.106;2024-03-07T03:05:37;6.50;;;2.70;;
54555;SDS011;57291;37.520;15.106;2024-03-07T03:08:06;6.45;;;2.60;;
54555;SDS011;57291;37.520;15.106;2024-03-07T03:10:34;8.43;;;3.00;;
54555;SDS011;57291;37.520;15.106;2024-03-07T03:13:01;6.03;;;2.70;;
54555;SDS011;57291;37.520;15.106;2024-03-07T03:15:29;5.18;;;2.65;;
54555;SDS011;57291;37.520;15.106;2024-03-07T03:17:57;5.88;;;3.10;;
54555;SDS011;57291;37.520;15.106;2024-03-07T03:20:28;7.32;;;3.22;;
54555;SDS011;57291;37.520;15.106;2024-03-07T03:23:06;7.72;;;3.17;;
54555;SDS011;57291;37.520;15.106;2024-03-07T03:25:47;6.45;;;3.35;;
54555;SDS011;57291;37.520;15.106;2024-03-07T03:28:17;7.25;;;2.90;;
54555;SDS011;57291;37.520;15.106;2024-03-07T03:30:47;8.57;;;3.60;;
54555;SDS011;57291;37.520;15.106;2024-03-07T03:33:15;7.65;;;3.22;;
54555;SDS011;57291;37.520;15.106;2024-03-07T03:35:43;7.82;;;3.50;;
54555;SDS011;57291;37.520;15.106;2024-03-07T03:38:11;8.77;;;3.55;;
54555;SDS011;57291;37.520;15.106;2024-03-07T03:40:39;10.27;;;4.07;;
54555;SDS011;57291;37.520;15.106;2024-03-07T03:43:06;8.68;;;3.60;;
54555;SDS011;57291;37.520;15.106;2024-03-07T03:45:34;6.85;;;3.17;;
54555;SDS011;57291;37.520;15.106;2024-03-07T03:48:02;6.97;;;3.30;;
54555;SDS011;57291;37.520;15.106;2024-03-07T03:50:30;9.60;;;3.30;;
54555;SDS011;57291;37.520;15.106;2024-03-07T03:52:58;9.13;;;3.33;;
54555;SDS011;57291;37.520;15.106;2024-03-07T03:55:28;7.63;;;3.50;;
54555;SDS011;57291;37.520;15.106;2024-03-07T03:57:55;9.25;;;4.03;;
54555;SDS011;57291;37.520;15.106;2024-03-07T04:00:22;9.43;;;3.88;;
54555;SDS011;57291;37.520;15.106;2024-03-07T04:02:50;7.40;;;3.20;;
54555;SDS011;57291;37.520;15.106;2024-03-07T04:05:19;6.45;;;3.22;;
54555;SDS011;57291;37.520;15.106;2024-03-07T04:07:47;9.43;;;3.00;;
54555;SDS011;57291;37.520;15.106;2024-03-07T04:10:15;6.28;;;3.22;;
54555;SDS011;57291;37.520;15.106;2024-03-07T04:12:45;6.00;;;2.88;;
54555;SDS011;57291;37.520;15.106;2024-03-07T04:15:13;5.75;;;2.80;;
54555;SDS011;57291;37.520;15.106;2024-03-07T04:17:46;8.43;;;2.88;;
54555;SDS011;57291;37.520;15.106;2024-03-07T04:20:15;9.32;;;2.35;;
54555;SDS011;57291;37.520;15.106;2024-03-07T04:22:46;8.98;;;2.70;;
54555;SDS011;57291;37.520;15.106;2024-03-07T04:25:13;5.45;;;2.50;;
54555;SDS011;57291;37.520;15.106;2024-03-07T04:27:43;5.63;;;2.08;;
54555;SDS011;57291;37.520;15.106;2024-03-07T04:30:12;4.47;;;2.05;;
54555;SDS011;57291;37.520;15.106;2024-03-07T04:32:42;5.10;;;2.22;;
54555;SDS011;57291;37.520;15.106;2024-03-07T04:35:09;5.20;;;2.40;;
54555;SDS011;57291;37.520;15.106;2024-03-07T04:37:41;9.63;;;3.00;;
54555;SDS011;57291;37.520;15.106;2024-03-07T04:40:09;6.97;;;2.42;;
54555;SDS011;57291;37.520;15.106;2024-03-07T04:42:46;9.25;;;4.07;;
54555;SDS011;57291;37.520;15.106;2024-03-07T04:45:15;6.25;;;2.67;;
54555;SDS011;57291;37.520;15.106;2024-03-07T04:47:43;6.82;;;2.80;;
54555;SDS011;57291;37.520;15.106;2024-03-07T04:50:12;3.95;;;2.40;;
54555;SDS011;57291;37.520;15.106;2024-03-07T04:52:46;6.60;;;2.60;;
54555;SDS011;57291;37.520;15.106;2024-03-07T04:55:15;6.93;;;2.33;;
54555;SDS011;57291;37.520;15.106;2024-03-07T04:57:43;7.05;;;2.10;;
54555;SDS011;57291;37.520;15.106;2024-03-07T05:00:11;6.82;;;2.20;;
54555;SDS011;57291;37.520;15.106;2024-03-07T05:02:45;5.13;;;2.40;;
54555;SDS011;57291;37.520;15.106;2024-03-07T05:05:14;6.57;;;2.55;;
54555;SDS011;57291;37.520;15.106;2024-03-07T05:07:50;6.35;;;2.28;;
54555;SDS011;57291;37.520;15.106;2024-03-07T05:10:18;4.65;;;2.30;;
54555;SDS011;57291;37.520;15.106;2024-03-07T05:12:45;6.93;;;2.78;;
54555;SDS011;57291;37.520;15.106;2024-03-07T05:15:13;7.38;;;2.47;;
54555;SDS011;57291;37.520;15.106;2024-03-07T05:17:40;5.13;;;2.40;;
54555;SDS011;57291;37.520;15.106;2024-03-07T05:20:10;9.73;;;2.88;;
54555;SDS011;57291;37.520;15.106;2024-03-07T05:22:40;6.95;;;2.90;;
54555;SDS011;57291;37.520;15.106;2024-03-07T05:25:11;8.57;;;2.88;;
54555;SDS011;57291;37.520;15.106;2024-03-07T05:27:39;6.95;;;2.80;;
54555;SDS011;57291;37.520;15.106;2024-03-07T05:30:07;6.43;;;2.60;;
54555;SDS011;57291;37.520;15.106;2024-03-07T05:32:38;5.75;;;2.47;;
54555;SDS011;57291;37.520;15.106;2024-03-07T05:35:07;8.02;;;2.90;;
54555;SDS011;57291;37.520;15.106;2024-03-07T05:37:34;5.47;;;2.45;;
54555;SDS011;57291;37.520;15.106;2024-03-07T05:40:02;5.32;;;2.67;;
54555;SDS011;57291;37.520;15.106;2024-03-07T05:42:31;5.90;;;2.83;;
54555;SDS011;57291;37.520;15.106;2024-03-07T05:44:59;7.18;;;2.90;;
54555;SDS011;57291;37.520;15.106;2024-03-07T05:47:26;6.03;;;2.90;;
54555;SDS011;57291;37.520;15.106;2024-03-07T05:49:54;7.53;;;2.80;;
54555;SDS011;57291;37.520;15.106;2024-03-07T05:52:22;5.85;;;2.67;;
54555;SDS011;57291;37.520;15.106;2024-03-07T05:54:49;4.88;;;2.50;;
54555;SDS011;57291;37.520;15.106;2024-03-07T05:57:17;5.53;;;2.38;;
54555;SDS011;57291;37.520;15.106;2024-03-07T05:59:44;5.93;;;2.45;;
54555;SDS011;57291;37.520;15.106;2024-03-07T06:02:13;12.10;;;2.65;;
54555;SDS011;57291;37.520;15.106;2024-03-07T06:04:43;3.90;;;2.00;;
54555;SDS011;57291;37.520;15.106;2024-03-07T06:07:10;9.52;;;2.50;;
54555;SDS011;57291;37.520;15.106;2024-03-07T06:09:38;6.80;;;2.58;;
54555;SDS011;57291;37.520;15.106;2024-03-07T06:12:05;8.48;;;2.80;;
54555;SDS011;57291;37.520;15.106;2024-03-07T06:14:48;10.73;;;2.85;;
54555;SDS011;57291;37.520;15.106;2024-03-07T06:17:16;10.38;;;3.55;;
54555;SDS011;57291;37.520;15.106;2024-03-07T06:19:49;11.10;;;4.10;;
54555;SDS011;57291;37.520;15.106;2024-03-07T06:22:16;9.25;;;4.20;;
54555;SDS011;57291;37.520;15.106;2024-03-07T06:24:44;8.90;;;4.35;;
54555;SDS011;57291;37.520;15.106;2024-03-07T06:27:11;8.65;;;4.10;;
54555;SDS011;57291;37.520;15.106;2024-03-07T06:29:54;10.52;;;4.20;;
54555;SDS011;57291;37.520;15.106;2024-03-07T06:32:22;14.52;;;4.82;;
54555;SDS011;57291;37.520;15.106;2024-03-07T06:34:50;10.10;;;4.65;;
54555;SDS011;57291;37.520;15.106;2024-03-07T06:37:17;14.23;;;5.15;;
54555;SDS011;57291;37.520;15.106;2024-03-07T06:39:46;12.75;;;5.60;;
54555;SDS011;57291;37.520;15.106;2024-03-07T06:42:13;16.15;;;5.95;;
54555;SDS011;57291;37.520;15.106;2024-03-07T06:44:42;11.80;;;5.43;;
54555;SDS011;57291;37.520;15.106;2024-03-07T06:47:10;11.02;;;5.20;;
54555;SDS011;57291;37.520;15.106;2024-03-07T06:49:37;9.85;;;3.67;;
54555;SDS011;57291;37.520;15.106;2024-03-07T06:52:07;10.93;;;4.20;;
54555;SDS011;57291;37.520;15.106;2024-03-07T06:54:35;11.73;;;4.68;;
54555;SDS011;57291;37.520;15.106;2024-03-07T06:57:02;12.25;;;4.35;;
54555;SDS011;57291;37.520;15.106;2024-03-07T06:59:30;9.98;;;4.68;;
54555;SDS011;57291;37.520;15.106;2024-03-07T07:01:58;8.95;;;3.85;;
54555;SDS011;57291;37.520;15.106;2024-03-07T07:04:26;11.95;;;4.28;;
54555;SDS011;57291;37.520;15.106;2024-03-07T07:06:58;11.32;;;5.03;;
54555;SDS011;57291;37.520;15.106;2024-03-07T07:09:26;9.80;;;3.97;;
54555;SDS011;57291;37.520;15.106;2024-03-07T07:11:53;11.60;;;4.05;;
54555;SDS011;57291;37.520;15.106;2024-03-07T07:14:20;7.80;;;3.63;;
54555;SDS011;57291;37.520;15.106;2024-03-07T07:16:48;13.98;;;3.63;;
54555;SDS011;57291;37.520;15.106;2024-03-07T07:19:15;7.50;;;3.33;;
54555;SDS011;57291;37.520;15.106;2024-03-07T07:21:43;8.57;;;2.53;;
54555;SDS011;57291;37.520;15.106;2024-03-07T07:24:10;11.60;;;2.70;;
54555;SDS011;57291;37.520;15.106;2024-03-07T07:26:38;9.80;;;2.72;;
54555;SDS011;57291;37.520;15.106;2024-03-07T07:29:06;5.57;;;2.30;;
54555;SDS011;57291;37.520;15.106;2024-03-07T07:31:33;7.13;;;3.67;;
54555;SDS011;57291;37.520;15.106;2024-03-07T07:34:00;9.60;;;2.35;;
54555;SDS011;57291;37.520;15.106;2024-03-07T07:36:31;5.78;;;1.88;;
54555;SDS011;57291;37.520;15.106;2024-03-07T07:38:58;6.20;;;1.85;;
54555;SDS011;57291;37.520;15.106;2024-03-07T07:41:26;6.22;;;1.88;;
54555;SDS011;57291;37.520;15.106;2024-03-07T07:43:54;4.90;;;2.10;;
54555;SDS011;57291;37.520;15.106;2024-03-07T07:46:23;8.88;;;2.20;;
54555;SDS011;57291;37.520;15.106;2024-03-07T07:48:50;7.78;;;2.08;;
54555;SDS011;57291;37.520;15.106;2024-03-07T07:51:18;7.90;;;2.10;;
54555;SDS011;57291;37.520;15.106;2024-03-07T07:53:45;8.18;;;1.90;;
54555;SDS011;57291;37.520;15.106;2024-03-07T07:56:12;8.90;;;2.10;;
54555;SDS011;57291;37.520;15.106;2024-03-07T07:58:40;4.95;;;2.17;;
54555;SDS011;57291;37.520;15.106;2024-03-07T08:01:07;10.32;;;2.67;;
54555;SDS011;57291;37.520;15.106;2024-03-07T08:03:36;11.30;;;3.13;;
54555;SDS011;57291;37.520;15.106;2024-03-07T08:06:04;6.40;;;2.95;;
54555;SDS011;57291;37.520;15.106;2024-03-07T08:08:32;10.32;;;3.65;;
54555;SDS011;57291;37.520;15.106;2024-03-07T08:11:00;10.00;;;3.80;;
54555;SDS011;57291;37.520;15.106;2024-03-07T08:13:28;8.38;;;3.50;;
54555;SDS011;57291;37.520;15.106;2024-03-07T08:15:55;9.38;;;3.28;;
54555;SDS011;57291;37.520;15.106;2024-03-07T08:18:23;9.02;;;3.38;;
54555;SDS011;57291;37.520;15.106;2024-03-07T08:20:50;6.85;;;2.65;;
54555;SDS011;57291;37.520;15.106;2024-03-07T08:23:22;9.90;;;3.28;;
54555;SDS011;57291;37.520;15.106;2024-03-07T08:25:52;9.15;;;2.50;;
54555;SDS011;57291;37.520;15.106;2024-03-07T08:28:19;9.30;;;2.95;;
54555;SDS011;57291;37.520;15.106;2024-03-07T08:30:47;8.98;;;2.75;;
54555;SDS011;57291;37.520;15.106;2024-03-07T08:33:14;8.60;;;3.22;;
54555;SDS011;57291;37.520;15.106;2024-03-07T08:35:42;8.23;;;2.70;;
54555;SDS011;57291;37.520;15.106;2024-03-07T08:38:09;7.10;;;2.80;;
54555;SDS011;57291;37.520;15.106;2024-03-07T08:40:39;11.55;;;3.25;;
54555;SDS011;57291;37.520;15.106;2024-03-07T08:43:06;7.00;;;2.50;;
54555;SDS011;57291;37.520;15.106;2024-03-07T08:45:34;8.98;;;2.63;;
54555;SDS011;57291;37.520;15.106;2024-03-07T08:48:02;12.10;;;2.80;;
54555;SDS011;57291;37.520;15.106;2024-03-07T08:50:36;9.27;;;1.92;;
54555;SDS011;57291;37.520;15.106;2024-03-07T08:53:05;4.22;;;1.60;;
54555;SDS011;57291;37.520;15.106;2024-03-07T08:55:34;7.35;;;1.67;;
54555;SDS011;57291;37.520;15.106;2024-03-07T08:58:04;4.90;;;1.88;;
54555;SDS011;57291;37.520;15.106;2024-03-07T09:00:34;7.65;;;1.92;;
54555;SDS011;57291;37.520;15.106;2024-03-07T09:03:05;5.63;;;1.50;;
54555;SDS011;57291;37.520;15.106;2024-03-07T09:05:39;4.65;;;1.83;;
54555;SDS011;57291;37.520;15.106;2024-03-07T09:08:07;10.32;;;1.83;;
54555;SDS011;57291;37.520;15.106;2024-03-07T09:10:35;6.88;;;1.88;;
54555;SDS011;57291;37.520;15.106;2024-03-07T09:13:04;6.93;;;1.70;;
54555;SDS011;57291;37.520;15.106;2024-03-07T09:15:33;4.75;;;1.60;;
54555;SDS011;57291;37.520;15.106;2024-03-07T09:18:01;3.72;;;1.60;;
54555;SDS011;57291;37.520;15.106;2024-03-07T09:20:31;8.93;;;1.50;;
54555;SDS011;57291;37.520;15.106;2024-03-07T09:22:58;7.75;;;1.77;;
54555;SDS011;57291;37.520;15.106;2024-03-07T09:25:27;5.43;;;1.50;;
54555;SDS011;57291;37.520;15.106;2024-03-07T09:27:54;8.10;;;1.48;;
54555;SDS011;57291;37.520;15.106;2024-03-07T09:30:22;8.02;;;1.73;;
54555;SDS011;57291;37.520;15.106;2024-03-07T09:32:56;4.45;;;1.58;;
54555;SDS011;57291;37.520;15.106;2024-03-07T09:35:24;8.32;;;1.67;;
54555;SDS011;57291;37.520;15.106;2024-03-07T09:37:52;5.95;;;1.65;;
54555;SDS011;57291;37.520;15.106;2024-03-07T09:40:21;6.18;;;1.77;;
54555;SDS011;57291;37.520;15.106;2024-03-07T09:42:54;7.00;;;1.70;;
54555;SDS011;57291;37.520;15.106;2024-03-07T09:45:23;6.30;;;1.75;;
54555;SDS011;57291;37.520;15.106;2024-03-07T09:47:56;4.85;;;1.75;;
54555;SDS011;57291;37.520;15.106;2024-03-07T09:50:25;5.53;;;2.22;;
54555;SDS011;57291;37.520;15.106;2024-03-07T09:52:55;5.03;;;1.63;;
54555;SDS011;57291;37.520;15.106;2024-03-07T09:55:25;5.72;;;2.13;;
54555;SDS011;57291;37.520;15.106;2024-03-07T09:57:53;6.22;;;1.92;;
54555;SDS011;57291;37.520;15.106;2024-03-07T10:00:24;10.40;;;2.03;;
54555;SDS011;57291;37.520;15.106;2024-03-07T10:03:08;6.68;;;1.58;;
54555;SDS011;57291;37.520;15.106;2024-03-07T10:05:37;8.32;;;1.70;;
54555;SDS011;57291;37.520;15.106;2024-03-07T10:08:06;6.05;;;1.40;;
54555;SDS011;57291;37.520;15.106;2024-03-07T10:10:34;4.30;;;1.40;;
54555;SDS011;57291;37.520;15.106;2024-03-07T10:13:02;5.15;;;1.30;;
54555;SDS011;57291;37.520;15.106;2024-03-07T10:15:30;7.53;;;1.63;;
54555;SDS011;57291;37.520;15.106;2024-03-07T10:17:59;6.50;;;1.35;;
54555;SDS011;57291;37.520;15.106;2024-03-07T10:20:28;8.95;;;1.45;;
54555;SDS011;57291;37.520;15.106;2024-03-07T10:22:56;6.57;;;1.30;;
54555;SDS011;57291;37.520;15.106;2024-03-07T10:25:24;5.22;;;1.33;;
54555;SDS011;57291;37.520;15.106;2024-03-07T10:27:56;4.00;;;1.20;;
54555;SDS011;57291;37.520;15.106;2024-03-07T10:30:27;4.38;;;1.33;;
54555;SDS011;57291;37.520;15.106;2024-03-07T10:32:56;6.18;;;1.45;;
54555;SDS011;57291;37.520;15.106;2024-03-07T10:35:27;4.45;;;1.05;;
54555;SDS011;57291;37.520;15.106;2024-03-07T10:37:58;6.68;;;1.55;;
54555;SDS011;57291;37.520;15.106;2024-03-07T10:40:35;5.63;;;1.23;;
54555;SDS011;57291;37.520;15.106;2024-03-07T10:43:11;10.68;;;1.65;;
54555;SDS011;57291;37.520;15.106;2024-03-07T10:45:46;4.35;;;1.50;;
54555;SDS011;57291;37.520;15.106;2024-03-07T10:48:19;5.35;;;1.35;;
54555;SDS011;57291;37.520;15.106;2024-03-07T10:50:54;4.78;;;1.30;;
54555;SDS011;57291;37.520;15.106;2024-03-07T10:53:31;5.03;;;1.30;;
54555;SDS011;57291;37.520;15.106;2024-03-07T10:58:58;7.55;;;1.40;;
54555;SDS011;57291;37.520;15.106;2024-03-07T11:01:39;5.10;;;1.23;;
54555;SDS011;57291;37.520;15.106;2024-03-07T11:04:09;4.22;;;1.58;;
54555;SDS011;57291;37.520;15.106;2024-03-07T11:06:42;3.78;;;1.10;;
54555;SDS011;57291;37.520;15.106;2024-03-07T11:09:09;6.20;;;1.30;;
54555;SDS011;57291;37.520;15.106;2024-03-07T11:11:38;4.88;;;1.20;;
54555;SDS011;57291;37.520;15.106;2024-03-07T11:14:11;4.75;;;1.17;;
54555;SDS011;57291;37.520;15.106;2024-03-07T11:16:39;3.53;;;1.20;;
54555;SDS011;57291;37.520;15.106;2024-03-07T11:21:56;6.65;;;1.40;;
54555;SDS011;57291;37.520;15.106;2024-03-07T11:26:52;3.85;;;1.10;;
54555;SDS011;57291;37.520;15.106;2024-03-07T11:29:39;3.80;;;1.30;;
54555;SDS011;57291;37.520;15.106;2024-03-07T11:32:12;3.83;;;1.10;;
54555;SDS011;57291;37.520;15.106;2024-03-07T11:34:42;4.30;;;1.50;;
54555;SDS011;57291;37.520;15.106;2024-03-07T11:37:17;5.18;;;1.50;;
54555;SDS011;57291;37.520;15.106;2024-03-07T11:39:46;5.28;;;1.70;;
54555;SDS011;57291;37.520;15.106;2024-03-07T11:42:27;9.05;;;1.30;;
54555;SDS011;57291;37.520;15.106;2024-03-07T11:44:56;6.85;;;1.45;;
54555;SDS011;57291;37.520;15.106;2024-03-07T11:47:35;6.57;;;2.08;;
54555;SDS011;57291;37.520;15.106;2024-03-07T11:50:07;4.72;;;1.40;;
54555;SDS011;57291;37.520;15.106;2024-03-07T11:52:46;6.75;;;1.80;;
54555;SDS011;57291;37.520;15.106;2024-03-07T11:55:14;3.72;;;0.90;;
54555;SDS011;57291;37.520;15.106;2024-03-07T11:57:43;6.05;;;1.80;;
54555;SDS011;57291;37.520;15.106;2024-03-07T12:00:12;4.75;;;1.38;;
54555;SDS011;57291;37.520;15.106;2024-03-07T12:02:42;6.78;;;1.40;;
54555;SDS011;57291;37.520;15.106;2024-03-07T12:05:14;15.82;;;2.42;;
54555;SDS011;57291;37.520;15.106;2024-03-07T12:07:44;4.93;;;2.03;;
54555;SDS011;57291;37.520;15.106;2024-03-07T12:10:12;5.57;;;1.90;;
54555;SDS011;57291;37.520;15.106;2024-03-07T12:12:40;10.43;;;2.20;;
54555;SDS011;57291;37.520;15.106;2024-03-07T12:15:10;6.68;;;2.00;;
54555;SDS011;57291;37.520;15.106;2024-03-07T12:17:47;5.88;;;2.28;;
54555;SDS011;57291;37.520;15.106;2024-03-07T12:20:17;6.70;;;1.95;;
54555;SDS011;57291;37.520;15.106;2024-03-07T12:22:58;6.20;;;1.70;;
54555;SDS011;57291;37.520;15.106;2024-03-07T12:25:30;5.70;;;1.88;;
54555;SDS011;57291;37.520;15.106;2024-03-07T12:28:01;7.47;;;1.88;;
54555;SDS011;57291;37.520;15.106;2024-03-07T12:33:21;6.22;;;1.95;;
54555;SDS011;57291;37.520;15.106;2024-03-07T12:35:53;6.13;;;1.85;;
54555;SDS011;57291;37.520;15.106;2024-03-07T12:38:28;8.55;;;2.20;;
54555;SDS011;57291;37.520;15.106;2024-03-07T12:41:03;10.20;;;2.10;;
54555;SDS011;57291;37.520;15.106;2024-03-07T12:43:32;3.70;;;1.67;;
54555;SDS011;57291;37.520;15.106;2024-03-07T12:46:00;6.05;;;2.00;;
54555;SDS011;57291;37.520;15.106;2024-03-07T12:48:28;6.03;;;1.80;;
54555;SDS011;57291;37.520;15.106;2024-03-07T12:50:56;11.48;;;2.00;;
54555;SDS011;57291;37.520;15.106;2024-03-07T12:53:23;10.88;;;2.28;;
54555;SDS011;57291;37.520;15.106;2024-03-07T12:55:56;6.93;;;1.88;;
54555;SDS011;57291;37.520;15.106;2024-03-07T12:58:24;7.80;;;1.88;;
54555;SDS011;57291;37.520;15.106;2024-03-07T13:00:56;5.60;;;1.85;;
54555;SDS011;57291;37.520;15.106;2024-03-07T13:03:24;5.38;;;1.90;;
54555;SDS011;57291;37.520;15.106;2024-03-07T13:08:29;4.32;;;1.50;;
54555;SDS011;57291;37.520;15.106;2024-03-07T13:10:57;5.35;;;1.63;;
54555;SDS011;57291;37.520;15.106;2024-03-07T13:13:27;8.45;;;2.20;;
54555;SDS011;57291;37.520;15.106;2024-03-07T13:15:55;7.38;;;1.90;;
54555;SDS011;57291;37.520;15.106;2024-03-07T13:18:23;6.25;;;1.92;;
54555;SDS011;57291;37.520;15.106;2024-03-07T13:20:51;6.82;;;2.05;;
54555;SDS011;57291;37.520;15.106;2024-03-07T13:23:19;5.80;;;1.75;;
54555;SDS011;57291;37.520;15.106;2024-03-07T13:25:47;6.35;;;1.85;;
54555;SDS011;57291;37.520;15.106;2024-03-07T13:28:15;3.67;;;1.63;;
54555;SDS011;57291;37.520;15.106;2024-03-07T13:30:44;5.22;;;1.95;;
54555;SDS011;57291;37.520;15.106;2024-03-07T13:33:16;9.18;;;2.15;;
54555;SDS011;57291;37.520;15.106;2024-03-07T13:35:44;6.45;;;1.52;;
54555;SDS011;57291;37.520;15.106;2024-03-07T13:38:12;7.88;;;1.73;;
54555;SDS011;57291;37.520;15.106;2024-03-07T13:40:40;9.50;;;2.25;;
54555;SDS011;57291;37.520;15.106;2024-03-07T13:43:07;11.32;;;2.30;;
54555;SDS011;57291;37.520;15.106;2024-03-07T13:45:35;8.27;;;1.90;;
54555;SDS011;57291;37.520;15.106;2024-03-07T13:48:08;7.70;;;1.90;;
54555;SDS011;57291;37.520;15.106;2024-03-07T13:50:47;8.27;;;2.17;;
54555;SDS011;57291;37.520;15.106;2024-03-07T13:53:29;10.40;;;1.92;;
54555;SDS011;57291;37.520;15.106;2024-03-07T13:58:45;7.03;;;1.50;;
54555;SDS011;57291;37.520;15.106;2024-03-07T14:13:13;7.13;;;1.77;;
54555;SDS011;57291;37.520;15.106;2024-03-07T14:32:37;4.30;;;1.35;;
54555;SDS011;57291;37.520;15.106;2024-03-07T14:35:09;6.03;;;1.30;;
54555;SDS011;57291;37.520;15.106;2024-03-07T14:37:55;6.45;;;1.42;;
54555;SDS011;57291;37.520;15.106;2024-03-07T14:40:33;5.25;;;1.52;;
54555;SDS011;57291;37.520;15.106;2024-03-07T14:43:01;9.13;;;1.33;;
54555;SDS011;57291;37.520;15.106;2024-03-07T14:45:41;7.53;;;1.40;;
54555;SDS011;57291;37.520;15.106;2024-03-07T14:48:09;4.65;;;1.45;;
54555;SDS011;57291;37.520;15.106;2024-03-07T14:50:42;6.28;;;1.33;;
54555;SDS011;57291;37.520;15.106;2024-03-07T14:53:13;4.65;;;1.60;;
54555;SDS011;57291;37.520;15.106;2024-03-07T14:55:44;6.38;;;1.52;;
54555;SDS011;57291;37.520;15.106;2024-03-07T14:58:13;4.63;;;1.30;;
54555;SDS011;57291;37.520;15.106;2024-03-07T15:00:43;8.18;;;1.60;;
54555;SDS011;57291;37.520;15.106;2024-03-07T15:03:24;5.25;;;1.20;;
54555;SDS011;57291;37.520;15.106;2024-03-07T15:05:56;7.00;;;1.95;;
54555;SDS011;57291;37.520;15.106;2024-03-07T15:08:23;8.15;;;1.60;;
54555;SDS011;57291;37.520;15.106;2024-03-07T15:11:14;4.97;;;1.75;;
54555;SDS011;57291;37.520;15.106;2024-03-07T15:13:51;7.80;;;2.10;;
54555;SDS011;57291;37.520;15.106;2024-03-07T15:16:18;5.25;;;1.65;;
54555;SDS011;57291;37.520;15.106;2024-03-07T15:18:59;8.70;;;3.42;;
54555;SDS011;57291;37.520;15.106;2024-03-07T15:21:27;4.50;;;1.40;;
54555;SDS011;57291;37.520;15.106;2024-03-07T15:23:56;6.40;;;2.00;;
54555;SDS011;57291;37.520;15.106;2024-03-07T15:26:25;9.85;;;1.90;;
54555;SDS011;57291;37.520;15.106;2024-03-07T15:28:54;10.63;;;2.00;;
54555;SDS011;57291;37.520;15.106;2024-03-07T15:31:22;5.43;;;1.58;;